Time;durP1;ratioP1;P1;durP2;ratioP2;P2;SDS_P1;SDS_P2;PMS_P1;PMS_P2;Temp;Humidity;BMP_temperature;BMP_pressure;BME280_temperature;BME280_humidity;BME280_pressure;Samples;Min_cycle;Max_cycle;Signal;HPM_P1;HPM_P2
2022/11/22 00:02:14;;;;;;;4.40;2.97;;;;;;;1.91;89.94;94424.41;5071584;28;20495;-85
2022/11/22 00:04:41;;;;;;;4.82;2.47;;;;;;;1.93;89.83;94424.09;5071973;28;20510;-86
2022/11/22 00:07:08;;;;;;;4.30;3.13;;;;;;;1.97;89.76;94408.94;5071358;28;20454;-89
2022/11/22 00:09:35;;;;;;;4.55;2.63;;;;;;;2.06;89.67;94412.44;5071737;28;20041;-89
2022/11/22 00:12:02;;;;;;;5.82;2.70;;;;;;;2.07;89.46;94411.34;5071234;28;20044;-87
2022/11/22 00:14:28;;;;;;;5.82;2.95;;;;;;;2.09;89.52;94409.16;5069214;28;20049;-88
2022/11/22 00:16:55;;;;;;;7.38;3.78;;;;;;;2.07;88.97;94408.66;5071414;28;20110;-88
2022/11/22 00:19:21;;;;;;;4.97;3.17;;;;;;;2.10;88.14;94405.38;5070097;28;20048;-89
2022/11/22 00:21:48;;;;;;;8.85;4.13;;;;;;;2.13;88.23;94407.41;5069993;28;20045;-88
2022/11/22 00:24:15;;;;;;;6.47;2.88;;;;;;;2.18;87.99;94412.63;5070944;28;20060;-89
2022/11/22 00:26:43;;;;;;;5.20;3.28;;;;;;;2.17;87.63;94413.75;5070478;28;20492;-87
2022/11/22 00:29:09;;;;;;;6.68;3.10;;;;;;;2.17;87.66;94419.13;5070880;28;20044;-89
2022/11/22 00:31:36;;;;;;;7.13;3.20;;;;;;;2.20;87.41;94423.88;5071530;28;20047;-88
2022/11/22 00:34:02;;;;;;;4.70;3.08;;;;;;;2.24;87.06;94424.81;5070734;28;20499;-88
2022/11/22 00:36:29;;;;;;;6.50;3.42;;;;;;;2.21;86.96;94422.75;5071115;28;20044;-88
2022/11/22 00:38:55;;;;;;;6.22;3.25;;;;;;;2.19;87.06;94422.28;5071147;28;20056;-87
2022/11/22 00:41:22;;;;;;;5.90;3.28;;;;;;;2.19;87.01;94426.84;5070612;28;20431;-88
2022/11/22 00:43:50;;;;;;;5.75;3.03;;;;;;;2.15;87.46;94417.84;5071016;28;20040;-89
2022/11/22 00:46:16;;;;;;;5.80;3.05;;;;;;;2.15;87.21;94415.97;5051258;28;20393;-88
2022/11/22 00:48:43;;;;;;;5.57;3.05;;;;;;;2.18;87.53;94425.28;5050790;28;20048;-89
2022/11/22 00:51:11;;;;;;;6.32;3.20;;;;;;;2.22;87.95;94428.94;5050611;28;20047;-88
2022/11/22 00:53:37;;;;;;;5.70;3.13;;;;;;;2.22;87.79;94432.41;5051088;28;20045;-89
2022/11/22 00:56:04;;;;;;;5.07;2.92;;;;;;;2.23;87.85;94420.56;5050729;28;20045;-89
2022/11/22 00:58:30;;;;;;;6.28;3.28;;;;;;;2.26;87.68;94430.69;5051039;28;20047;-88
2022/11/22 01:00:58;;;;;;;4.20;2.70;;;;;;;2.28;88.05;94435.72;5051194;28;20052;-88
2022/11/22 01:03:25;;;;;;;5.60;2.95;;;;;;;2.30;87.85;94428.97;5050390;28;20045;-88
2022/11/22 01:05:52;;;;;;;5.72;3.17;;;;;;;2.32;87.84;94432.13;5050962;28;20057;-88
2022/11/22 01:08:18;;;;;;;5.30;2.65;;;;;;;2.38;88.10;94445.41;5050500;28;20048;-87
2022/11/22 01:10:45;;;;;;;6.05;3.03;;;;;;;2.42;88.03;94441.00;5050837;28;20041;-89
2022/11/22 01:13:12;;;;;;;5.47;2.90;;;;;;;2.46;87.87;94442.75;5064450;28;20050;-89
2022/11/22 01:15:39;;;;;;;7.13;3.38;;;;;;;2.48;88.01;94442.41;5090899;28;20040;-89
2022/11/22 01:18:07;;;;;;;4.82;2.90;;;;;;;2.46;88.52;94441.94;5090502;28;20040;-90
2022/11/22 01:20:33;;;;;;;5.35;2.72;;;;;;;2.49;88.30;94446.69;5090620;28;20036;-89
2022/11/22 01:23:00;;;;;;;4.65;2.80;;;;;;;2.51;88.44;94439.13;5090749;28;20046;-89
2022/11/22 01:25:26;;;;;;;5.88;3.35;;;;;;;2.53;88.67;94442.28;5090111;28;20039;-88
2022/11/22 01:27:53;;;;;;;5.45;3.05;;;;;;;2.56;88.73;94452.41;5090626;28;20406;-90
2022/11/22 01:30:19;;;;;;;6.72;3.20;;;;;;;2.53;88.79;94453.81;5090074;28;20040;-88
2022/11/22 01:32:46;;;;;;;5.40;3.08;;;;;;;2.57;88.57;94456.66;5089995;28;20044;-88
2022/11/22 01:35:14;;;;;;;5.90;3.08;;;;;;;2.61;88.53;94458.41;5089941;28;20040;-88
2022/11/22 01:37:42;;;;;;;4.45;2.42;;;;;;;2.64;87.57;94453.50;5090560;28;20043;-89
2022/11/22 01:40:10;;;;;;;4.05;2.53;;;;;;;2.64;87.64;94448.94;5089860;28;20046;-88
2022/11/22 01:42:46;;;;;;;4.70;2.90;;;;;;;2.68;87.52;94443.72;5081814;28;20483;-87
2022/11/22 01:45:52;;;;;;;4.78;2.65;;;;;;;2.71;86.98;94432.31;5050068;28;20037;-89
2022/11/22 01:48:27;;;;;;;4.05;2.42;;;;;;;2.72;86.62;94429.34;5044598;28;20057;-88
2022/11/22 01:50:59;;;;;;;3.67;2.22;;;;;;;2.72;87.03;94418.59;5050415;28;20123;-89
2022/11/22 01:53:30;;;;;;;4.40;2.30;;;;;;;2.76;87.35;94427.59;5049663;28;20037;-89
2022/11/22 01:55:59;;;;;;;3.70;2.28;;;;;;;2.77;87.01;94413.06;5050120;28;20044;-87
2022/11/22 01:58:28;;;;;;;3.75;2.25;;;;;;;2.81;86.69;94405.94;5049685;28;20059;-89
2022/11/22 02:00:56;;;;;;;3.70;2.28;;;;;;;2.81;86.07;94405.94;5050033;28;20127;-89
2022/11/22 02:03:23;;;;;;;3.42;2.00;;;;;;;2.82;86.05;94401.38;5049654;28;20041;-90
2022/11/22 02:05:51;;;;;;;4.00;2.58;;;;;;;2.84;85.70;94394.56;5050078;28;20060;-89
2022/11/22 02:08:26;;;;;;;7.53;2.22;;;;;;;2.88;85.76;94400.09;5049630;28;20052;-89
2022/11/22 02:10:55;;;;;;;6.15;2.33;;;;;;;2.92;86.37;94386.78;5050039;28;20052;-88
2022/11/22 02:13:23;;;;;;;5.15;2.53;;;;;;;2.86;86.66;94403.06;5067243;28;20055;-89
2022/11/22 02:15:51;;;;;;;4.43;2.70;;;;;;;2.86;86.83;94413.03;5090027;28;20047;-88
2022/11/22 02:18:18;;;;;;;4.97;2.30;;;;;;;2.88;86.71;94408.94;5089600;28;20070;-89
2022/11/22 02:20:45;;;;;;;3.65;2.15;;;;;;;2.91;86.59;94404.03;5090054;28;20051;-88
2022/11/22 02:23:20;;;;;;;5.55;2.40;;;;;;;2.90;86.75;94397.88;5089353;28;20047;-90
2022/11/22 02:25:56;;;;;;;4.63;2.42;;;;;;;2.94;86.29;94400.72;5090045;28;20040;-89
2022/11/22 02:28:23;;;;;;;4.22;2.60;;;;;;;2.91;86.78;94387.91;5089393;28;20498;-86
2022/11/22 02:30:50;;;;;;;4.00;2.17;;;;;;;2.89;86.72;94390.91;5089715;28;20483;-89
2022/11/22 02:33:17;;;;;;;5.20;2.50;;;;;;;2.89;86.91;94412.44;5089306;28;20052;-89
2022/11/22 02:35:44;;;;;;;4.82;2.58;;;;;;;2.85;86.73;94423.00;5089961;28;20048;-88
2022/11/22 02:38:15;;;;;;;6.07;2.78;;;;;;;2.88;86.67;94427.78;5089557;28;20044;-88
2022/11/22 02:40:45;;;;;;;3.55;2.47;;;;;;;2.88;86.62;94413.53;5090182;28;20040;-90
2022/11/22 02:43:17;;;;;;;4.70;2.53;;;;;;;2.97;86.84;94418.91;5083164;28;20044;-90
2022/11/22 02:45:44;;;;;;;4.72;2.63;;;;;;;2.92;86.88;94417.16;5093739;28;20044;-90
2022/11/22 02:48:13;;;;;;;4.22;2.28;;;;;;;2.97;87.15;94421.59;5092986;28;20036;-88
2022/11/22 02:50:40;;;;;;;5.45;3.00;;;;;;;3.02;87.01;94429.50;5093743;28;20044;-89
2022/11/22 02:53:08;;;;;;;4.32;2.75;;;;;;;3.02;87.20;94432.19;5093009;28;20051;-89
2022/11/22 02:55:35;;;;;;;4.35;2.90;;;;;;;3.01;87.17;94430.59;5093719;28;20070;-89
2022/11/22 02:58:02;;;;;;;4.40;2.65;;;;;;;3.05;87.23;94431.56;5093015;28;20052;-88
2022/11/22 03:00:30;;;;;;;4.88;3.03;;;;;;;2.97;87.19;94441.19;5093318;28;20048;-89
2022/11/22 03:02:56;;;;;;;5.55;2.42;;;;;;;2.98;87.11;94442.78;5093293;28;20048;-88
2022/11/22 03:05:23;;;;;;;5.70;2.72;;;;;;;2.97;87.27;94435.03;5092800;28;20044;-89
2022/11/22 03:07:49;;;;;;;3.40;2.40;;;;;;;2.99;87.34;94443.59;5093260;28;20048;-89
2022/11/22 03:10:16;;;;;;;3.63;2.47;;;;;;;3.04;87.27;94446.91;5092730;28;20067;-89
2022/11/22 03:12:43;;;;;;;5.53;2.90;;;;;;;3.07;87.51;94448.16;5086451;28;20574;-88
2022/11/22 03:15:10;;;;;;;4.68;2.78;;;;;;;3.05;87.84;94450.38;5092731;28;20051;-90
2022/11/22 03:17:38;;;;;;;5.65;2.65;;;;;;;2.99;87.88;94454.34;5093158;28;20508;-89
2022/11/22 03:20:06;;;;;;;4.68;3.03;;;;;;;2.94;88.50;94446.44;5092471;28;20040;-89
2022/11/22 03:22:33;;;;;;;4.13;2.80;;;;;;;2.86;89.03;94448.78;5093075;28;20047;-89
2022/11/22 03:24:59;;;;;;;4.35;2.85;;;;;;;2.78;89.75;94449.59;5092761;28;20047;-89
2022/11/22 03:27:26;;;;;;;4.55;2.72;;;;;;;2.80;90.77;94443.88;5092138;28;20038;-88
2022/11/22 03:29:52;;;;;;;4.47;2.95;;;;;;;2.76;90.86;94443.72;5092711;28;20044;-88
2022/11/22 03:32:19;;;;;;;5.88;3.30;;;;;;;2.72;92.25;94445.47;5092401;28;20048;-89
2022/11/22 03:34:47;;;;;;;5.15;2.90;;;;;;;2.70;92.89;94444.97;5092623;28;20048;-88
2022/11/22 03:37:13;;;;;;;6.10;3.15;;;;;;;2.72;92.62;94440.09;5092141;28;20036;-89
2022/11/22 03:39:40;;;;;;;5.55;3.17;;;;;;;2.70;93.47;94442.28;5092693;28;20044;-85
2022/11/22 03:42:06;;;;;;;5.18;2.97;;;;;;;2.72;93.56;94448.16;5091163;28;20051;-87
2022/11/22 03:44:33;;;;;;;7.90;3.05;;;;;;;2.75;94.24;94450.19;5086875;28;20044;-89
2022/11/22 03:46:59;;;;;;;4.75;2.80;;;;;;;2.78;94.40;94452.28;5092362;28;20044;-88
2022/11/22 03:49:26;;;;;;;4.78;2.80;;;;;;;2.76;94.93;94451.78;5091660;28;20047;-88
2022/11/22 03:51:54;;;;;;;5.22;2.83;;;;;;;2.78;95.54;94444.22;5092330;28;20050;-88
2022/11/22 03:54:20;;;;;;;5.75;2.90;;;;;;;2.78;95.70;94454.97;5091339;28;20056;-89
2022/11/22 03:56:47;;;;;;;5.82;3.13;;;;;;;2.78;96.14;94464.91;5092097;28;20415;-88
2022/11/22 03:59:13;;;;;;;4.65;2.95;;;;;;;2.76;96.82;94467.13;5091676;28;20036;-89
2022/11/22 04:01:40;;;;;;;4.97;3.10;;;;;;;2.76;96.91;94462.53;5092283;28;20442;-88
2022/11/22 04:04:06;;;;;;;5.45;3.38;;;;;;;2.79;97.21;94464.59;5091251;28;20048;-88
2022/11/22 04:06:33;;;;;;;4.85;3.30;;;;;;;2.84;97.87;94460.97;5092146;28;20047;-89
2022/11/22 04:09:01;;;;;;;6.03;3.80;;;;;;;2.85;97.95;94468.72;5091836;28;20039;-87
2022/11/22 04:11:28;;;;;;;6.90;3.40;;;;;;;2.83;98.57;94468.25;5091580;28;20055;-88
2022/11/22 04:16:39;;;;;;;5.85;3.58;;;;;;;2.82;99.23;94465.88;5091787;28;20058;-88
2022/11/22 04:19:06;;;;;;;4.68;3.55;;;;;;;2.81;99.66;94465.06;5090837;28;20071;-87
2022/11/22 04:21:34;;;;;;;6.15;3.70;;;;;;;2.84;99.78;94463.66;5091677;28;20043;-88
2022/11/22 04:26:47;;;;;;;6.72;3.60;;;;;;;2.85;100.00;94460.66;5091511;28;20113;-88
2022/11/22 04:29:14;;;;;;;6.28;3.75;;;;;;;2.84;100.00;94458.28;5091071;28;20044;-88
2022/11/22 04:34:25;;;;;;;6.70;3.65;;;;;;;2.91;100.00;94471.25;5091130;28;20090;-88
2022/11/22 04:36:52;;;;;;;6.40;3.78;;;;;;;2.93;100.00;94469.06;5091312;28;20487;-87
2022/11/22 04:39:20;;;;;;;7.18;3.58;;;;;;;2.95;100.00;94480.28;5090858;28;20048;-88
2022/11/22 04:41:46;;;;;;;5.07;3.70;;;;;;;2.98;100.00;94479.66;5091379;28;20050;-88
2022/11/22 04:46:56;;;;;;;8.40;4.03;;;;;;;3.03;100.00;94482.97;5051156;28;20048;-88
2022/11/22 04:49:23;;;;;;;8.20;3.70;;;;;;;3.07;100.00;94477.72;5050433;28;20051;-88
2022/11/22 04:54:35;;;;;;;5.35;3.50;;;;;;;3.17;100.00;94472.03;5051073;28;20060;-88
2022/11/22 04:57:02;;;;;;;5.78;3.67;;;;;;;3.22;100.00;94479.94;5050418;28;20041;-87
2022/11/22 04:59:28;;;;;;;6.28;3.95;;;;;;;3.28;100.00;94478.69;5051108;28;20045;-90
2022/11/22 05:01:55;;;;;;;5.45;3.85;;;;;;;3.33;100.00;94475.84;5050595;28;20586;-89
2022/11/22 05:04:21;;;;;;;5.30;3.80;;;;;;;3.36;100.00;94469.03;5050358;28;20052;-89
2022/11/22 05:06:48;;;;;;;7.80;4.18;;;;;;;3.35;100.00;94462.88;5050285;28;20052;-89
2022/11/22 05:09:15;;;;;;;7.93;4.35;;;;;;;3.39;100.00;94473.78;5050338;28;20124;-89
2022/11/22 05:11:43;;;;;;;5.88;3.80;;;;;;;3.44;100.00;94462.06;5050683;28;20048;-90
2022/11/22 05:14:10;;;;;;;6.93;4.10;;;;;;;3.48;100.00;94460.31;5067157;28;20036;-89
2022/11/22 05:16:36;;;;;;;6.68;3.88;;;;;;;3.55;100.00;94466.81;5070627;28;20048;-89
2022/11/22 05:19:03;;;;;;;7.35;4.93;;;;;;;3.57;100.00;94463.78;5069780;28;20434;-89
2022/11/22 05:21:32;;;;;;;6.82;4.18;;;;;;;3.62;100.00;94472.47;5070386;28;20526;-90
2022/11/22 05:23:57;;;;;;;6.38;3.92;;;;;;;3.65;100.00;94468.34;5070482;28;20103;-88
2022/11/22 05:26:26;;;;;;;7.07;4.30;;;;;;;3.67;100.00;94468.84;5069930;28;20487;-89
2022/11/22 05:28:56;;;;;;;6.13;4.00;;;;;;;3.68;100.00;94473.09;5070553;28;20048;-90
2022/11/22 05:31:26;;;;;;;5.68;4.00;;;;;;;3.73;100.00;94472.94;5069970;28;20048;-88
2022/11/22 05:33:54;;;;;;;5.72;3.55;;;;;;;3.76;100.00;94466.91;5070441;28;20044;-89
2022/11/22 05:36:21;;;;;;;6.38;3.83;;;;;;;3.81;100.00;94474.81;5069617;28;20055;-89
2022/11/22 05:38:50;;;;;;;8.25;3.35;;;;;;;3.88;100.00;94480.50;5070161;28;20399;-90
2022/11/22 05:41:17;;;;;;;6.93;3.88;;;;;;;3.99;100.00;94480.16;5069765;28;20056;-89
2022/11/22 05:43:44;;;;;;;5.00;3.25;;;;;;;4.04;100.00;94480.78;5080320;28;20051;-88
2022/11/22 05:46:15;;;;;;;5.50;3.00;;;;;;;4.13;100.00;94481.53;5071940;28;20047;-89
2022/11/22 05:48:43;;;;;;;5.30;2.65;;;;;;;4.21;100.00;94482.59;5090187;28;20040;-89
2022/11/22 05:51:13;;;;;;;6.75;2.80;;;;;;;4.27;100.00;94475.91;5089674;28;20059;-89
2022/11/22 05:53:41;;;;;;;7.20;3.00;;;;;;;4.29;100.00;94478.31;5090441;28;20051;-89
2022/11/22 05:56:08;;;;;;;4.55;2.88;;;;;;;4.34;100.00;94489.69;5089921;28;20112;-89
2022/11/22 05:58:35;;;;;;;3.10;1.92;;;;;;;4.41;100.00;94495.38;5090354;28;20047;-89
2022/11/22 06:01:06;;;;;;;4.50;2.40;;;;;;;4.41;100.00;94498.06;5090557;28;20046;-89
2022/11/22 06:03:35;;;;;;;3.38;1.98;;;;;;;4.40;100.00;94496.47;5090227;28;20067;-89
2022/11/22 06:06:02;;;;;;;8.45;2.30;;;;;;;4.40;100.00;94491.09;5090406;28;20044;-90
2022/11/22 06:08:29;;;;;;;3.08;1.90;;;;;;;4.43;100.00;94493.13;5089995;28;20651;-90
2022/11/22 06:10:58;;;;;;;5.10;2.40;;;;;;;4.36;100.00;94490.16;5090274;28;20036;-89
2022/11/22 06:13:24;;;;;;;5.57;2.45;;;;;;;4.32;100.00;94493.81;5083101;28;20493;-89
2022/11/22 06:15:51;;;;;;;4.10;2.30;;;;;;;4.37;100.00;94491.72;5090028;28;20040;-90
2022/11/22 06:18:17;;;;;;;4.30;2.53;;;;;;;4.42;100.00;94498.84;5092058;28;20049;-89
2022/11/22 06:20:45;;;;;;;6.18;2.20;;;;;;;4.42;100.00;94494.25;5094512;28;20046;-89
2022/11/22 06:23:12;;;;;;;4.68;2.42;;;;;;;4.48;100.00;94502.16;5093717;28;20040;-90
2022/11/22 06:25:38;;;;;;;4.68;2.28;;;;;;;4.61;100.00;94501.16;5093899;28;20047;-88
2022/11/22 06:28:05;;;;;;;4.30;2.10;;;;;;;4.68;100.00;94504.13;5093310;28;20075;-87
2022/11/22 06:30:31;;;;;;;5.32;2.30;;;;;;;4.68;100.00;94509.50;5093692;28;20517;-85
2022/11/22 06:32:58;;;;;;;4.25;2.05;;;;;;;4.70;100.00;94507.28;5093598;28;20051;-87
2022/11/22 06:35:25;;;;;;;4.38;2.45;;;;;;;4.78;100.00;94506.44;5093228;28;20390;-84
2022/11/22 06:37:52;;;;;;;3.58;1.83;;;;;;;4.85;100.00;94505.91;5093584;28;20051;-79
2022/11/22 06:40:19;;;;;;;4.75;2.33;;;;;;;4.90;100.00;94513.81;5092908;28;20044;-79
2022/11/22 06:42:46;;;;;;;5.80;2.10;;;;;;;4.91;100.00;94516.22;5086283;28;20415;-78
2022/11/22 06:45:12;;;;;;;5.07;1.95;;;;;;;4.94;100.00;94522.84;5092806;28;20036;-79
2022/11/22 06:47:39;;;;;;;4.03;2.30;;;;;;;4.95;100.00;94522.50;5093241;28;20060;-77
2022/11/22 06:50:06;;;;;;;2.75;1.98;;;;;;;4.89;100.00;94523.03;5092742;28;20040;-81
2022/11/22 06:52:33;;;;;;;4.65;2.55;;;;;;;4.86;100.00;94529.88;5093304;28;20048;-77
2022/11/22 06:55:01;;;;;;;5.22;2.33;;;;;;;4.95;100.00;94527.91;5093270;28;20040;-79
2022/11/22 06:57:27;;;;;;;5.25;2.42;;;;;;;4.98;100.00;94529.16;5092330;28;20051;-77
2022/11/22 06:59:54;;;;;;;5.78;2.85;;;;;;;5.03;100.00;94528.19;5093251;28;20055;-79
2022/11/22 07:02:20;;;;;;;5.00;3.08;;;;;;;5.09;100.00;94532.28;5092772;28;20398;-79
2022/11/22 07:04:47;;;;;;;6.70;3.08;;;;;;;5.09;100.00;94533.06;5092966;28;20044;-79
2022/11/22 07:07:14;;;;;;;6.43;3.40;;;;;;;5.10;100.00;94539.25;5092552;28;20071;-79
2022/11/22 07:09:40;;;;;;;6.65;2.88;;;;;;;5.08;100.00;94546.88;5093129;28;20040;-81
2022/11/22 07:12:09;;;;;;;5.82;3.28;;;;;;;5.06;100.00;94546.41;5091594;28;20051;-78
2022/11/22 07:14:36;;;;;;;5.25;3.30;;;;;;;5.04;100.00;94551.34;5088308;28;20724;-79
2022/11/22 07:17:02;;;;;;;4.53;3.38;;;;;;;5.00;100.00;94561.22;5092295;28;20043;-80
2022/11/22 07:19:29;;;;;;;5.80;3.30;;;;;;;5.01;100.00;94562.78;5093059;28;20048;-77
2022/11/22 07:21:55;;;;;;;6.55;3.80;;;;;;;4.96;100.00;94561.88;5092995;28;20062;-81
2022/11/22 07:24:22;;;;;;;4.80;3.30;;;;;;;4.98;100.00;94569.63;5092317;28;20390;-81
2022/11/22 07:26:48;;;;;;;6.57;3.78;;;;;;;4.98;100.00;94570.41;5092925;28;20051;-79
2022/11/22 07:29:16;;;;;;;5.43;3.42;;;;;;;5.02;100.00;94564.38;5091413;28;20040;-77
2022/11/22 07:31:45;;;;;;;8.57;3.80;;;;;;;5.04;100.00;94571.03;5092885;28;20044;-77
2022/11/22 07:34:12;;;;;;;5.75;3.60;;;;;;;5.05;100.00;94582.59;5092260;28;20044;-81
2022/11/22 07:36:38;;;;;;;6.57;3.80;;;;;;;5.09;100.00;94580.84;5092614;28;20052;-77
2022/11/22 07:39:05;;;;;;;5.95;3.70;;;;;;;5.12;100.00;94585.59;5092173;28;20040;-79
2022/11/22 07:41:31;;;;;;;4.85;3.30;;;;;;;5.07;100.00;94589.28;5092463;28;20044;-81
2022/11/22 07:43:58;;;;;;;6.88;3.20;;;;;;;5.07;100.00;94593.88;5085673;28;20036;-77
2022/11/22 07:46:28;;;;;;;6.85;2.97;;;;;;;5.07;100.00;94594.66;5092016;28;20044;-79
2022/11/22 07:48:55;;;;;;;6.93;2.95;;;;;;;5.07;100.00;94593.88;5092271;28;20050;-81
2022/11/22 07:51:22;;;;;;;7.22;3.08;;;;;;;5.01;100.00;94603.25;5091856;28;20082;-77
2022/11/22 07:53:48;;;;;;;5.07;2.90;;;;;;;4.97;100.00;94606.59;5092201;28;20047;-77
2022/11/22 07:56:15;;;;;;;5.00;3.20;;;;;;;4.97;100.00;94605.81;5091784;28;20040;-82
2022/11/22 07:58:42;;;;;;;5.72;3.20;;;;;;;4.93;100.00;94605.66;5092061;28;20054;-79
2022/11/22 08:01:10;;;;;;;8.73;3.88;;;;;;;4.76;100.00;94605.75;5091746;28;20071;-80
2022/11/22 08:03:38;;;;;;;8.85;3.80;;;;;;;4.81;100.00;94613.66;5092133;28;20055;-80
2022/11/22 08:06:07;;;;;;;9.60;4.30;;;;;;;4.80;100.00;94622.84;5091373;28;20054;-77
2022/11/22 08:08:34;;;;;;;8.95;4.32;;;;;;;4.69;100.00;94622.41;5091983;28;20044;-81
2022/11/22 08:11:01;;;;;;;7.43;4.43;;;;;;;4.65;100.00;94629.59;5092005;28;20050;-81
2022/11/22 08:13:28;;;;;;;12.35;5.28;;;;;;;4.66;100.00;94633.06;5084936;28;20050;-78
2022/11/22 08:15:55;;;;;;;9.15;4.80;;;;;;;4.68;100.00;94630.81;5092142;28;20131;-80
2022/11/22 08:18:22;;;;;;;7.95;4.93;;;;;;;4.83;100.00;94635.69;5091189;28;20058;-79
2022/11/22 08:20:50;;;;;;;9.60;4.82;;;;;;;4.80;100.00;94639.03;5091807;28;20044;-78
2022/11/22 08:23:17;;;;;;;9.13;5.30;;;;;;;4.74;100.00;94640.31;5091312;28;20051;-80
2022/11/22 08:25:44;;;;;;;11.75;5.93;;;;;;;4.65;100.00;94643.06;5091773;28;20067;-78
2022/11/22 08:28:11;;;;;;;10.85;5.72;;;;;;;4.72;100.00;94647.94;5091121;28;20036;-77
2022/11/22 08:30:37;;;;;;;11.57;5.80;;;;;;;4.73;100.00;94660.31;5091566;28;20674;-80
2022/11/22 08:33:04;;;;;;;13.52;5.93;;;;;;;4.72;100.00;94658.75;5091337;28;20384;-79
2022/11/22 08:35:30;;;;;;;15.02;6.78;;;;;;;4.65;100.00;94669.22;5091404;28;20707;-80
2022/11/22 08:37:59;;;;;;;14.75;5.95;;;;;;;4.71;100.00;94673.34;5091338;28;20043;-84
2022/11/22 08:40:25;;;;;;;80.40;40.50;;;;;;;4.72;100.00;94672.22;5090541;28;20052;-80
2022/11/22 08:42:54;;;;;;;20.52;9.57;;;;;;;4.81;100.00;94678.38;5084002;28;20514;-82
2022/11/22 08:45:20;;;;;;;14.10;7.05;;;;;;;4.84;100.00;94679.63;5090662;28;20445;-78
2022/11/22 08:47:47;;;;;;;11.30;6.15;;;;;;;4.87;100.00;94687.88;5091246;28;20064;-78
2022/11/22 08:50:14;;;;;;;14.35;7.32;;;;;;;4.81;100.00;94689.19;5090599;28;20479;-78
2022/11/22 08:52:41;;;;;;;15.63;6.78;;;;;;;4.87;100.00;94693.28;5090967;28;20044;-79
2022/11/22 08:55:09;;;;;;;13.68;6.53;;;;;;;5.03;100.00;94698.16;5090793;28;20040;-76
2022/11/22 08:57:36;;;;;;;11.20;7.05;;;;;;;4.88;100.00;94689.47;5091269;28;20047;-80
2022/11/22 09:00:04;;;;;;;15.32;8.02;;;;;;;4.89;100.00;94691.03;5090660;28;20063;-79
2022/11/22 09:02:30;;;;;;;12.50;7.15;;;;;;;5.02;100.00;94693.88;5090940;28;20546;-79
2022/11/22 09:04:57;;;;;;;14.32;7.30;;;;;;;5.09;100.00;94699.56;5090794;28;20518;-81
2022/11/22 09:07:24;;;;;;;18.27;7.50;;;;;;;5.12;100.00;94698.91;5090435;28;20036;-79
2022/11/22 09:09:50;;;;;;;13.63;7.50;;;;;;;5.24;100.00;94707.09;5091048;28;20127;-81
2022/11/22 09:12:18;;;;;;;12.85;7.65;;;;;;;5.17;100.00;94701.44;5086770;28;20396;-80
2022/11/22 09:14:44;;;;;;;15.77;7.65;;;;;;;5.28;100.00;94707.25;5088713;28;20044;-81
2022/11/22 09:17:11;;;;;;;15.75;8.07;;;;;;;5.16;100.00;94710.63;5090342;28;20410;-80
2022/11/22 09:19:37;;;;;;;15.45;7.78;;;;;;;5.21;100.00;94707.75;5090456;28;20527;-81
2022/11/22 09:22:04;;;;;;;13.98;8.25;;;;;;;5.21;100.00;94719.31;5090223;28;20040;-82
2022/11/22 09:24:30;;;;;;;13.45;7.80;;;;;;;5.15;100.00;94722.53;5090502;28;20674;-82
2022/11/22 09:26:57;;;;;;;14.98;8.15;;;;;;;5.09;100.00;94718.44;5090760;28;20036;-80
2022/11/22 09:29:25;;;;;;;16.05;7.88;;;;;;;5.10;100.00;94714.63;5090204;28;20040;-86
2022/11/22 09:31:51;;;;;;;19.42;8.40;;;;;;;5.01;100.00;94713.84;5090552;28;20123;-81
2022/11/22 09:34:18;;;;;;;21.02;9.05;;;;;;;5.07;100.00;94718.75;5089933;28;20044;-83
2022/11/22 09:36:45;;;;;;;16.40;8.23;;;;;;;5.15;100.00;94719.84;5090559;28;20040;-85
2022/11/22 09:39:11;;;;;;;18.10;8.57;;;;;;;5.20;100.00;94722.34;5090039;28;20044;-79
2022/11/22 09:41:59;;;;;;;16.05;8.00;;;;;;;5.19;100.00;94723.47;5090470;28;20048;-81
2022/11/22 09:44:37;;;;;;;15.73;8.85;;;;;;;5.24;100.00;94731.41;5083004;28;20040;-81
2022/11/22 09:47:13;;;;;;;15.65;8.45;;;;;;;5.24;100.00;94723.31;5090042;28;20044;-80
2022/11/22 09:49:46;;;;;;;17.92;8.98;;;;;;;5.32;100.00;94729.75;5090235;28;20635;-78
2022/11/22 09:52:18;;;;;;;14.68;8.27;;;;;;;5.26;100.00;94731.84;5089540;28;20067;-81
2022/11/22 09:54:50;;;;;;;15.40;8.30;;;;;;;5.34;100.00;94727.56;5090520;28;20040;-81
2022/11/22 09:57:21;;;;;;;19.23;8.48;;;;;;;5.48;100.00;94718.13;5090004;28;20048;-82
2022/11/22 09:59:57;;;;;;;17.50;8.10;;;;;;;5.44;100.00;94730.69;5090445;28;20075;-81
2022/11/22 10:02:29;;;;;;;14.88;8.07;;;;;;;5.56;100.00;94723.78;5089626;28;20523;-78
2022/11/22 10:05:00;;;;;;;16.10;7.93;;;;;;;5.63;100.00;94740.25;5089968;28;20044;-84
2022/11/22 10:07:30;;;;;;;13.73;7.10;;;;;;;5.48;100.00;94728.09;5089648;28;20047;-79
2022/11/22 10:10:03;;;;;;;17.13;6.97;;;;;;;5.51;100.00;94740.97;5090108;28;20036;-83
2022/11/22 10:12:37;;;;;;;17.42;8.60;;;;;;;5.53;100.00;94735.22;5083261;28;20044;-82
2022/11/22 10:15:13;;;;;;;15.73;7.35;;;;;;;5.39;100.00;94736.25;5089623;28;20047;-80
2022/11/22 10:17:51;;;;;;;13.70;7.22;;;;;;;5.48;100.00;94745.13;5089951;28;20535;-80
2022/11/22 10:20:19;;;;;;;12.60;7.40;;;;;;;5.34;100.00;94736.44;5089678;28;20062;-78
2022/11/22 10:22:47;;;;;;;15.55;7.53;;;;;;;5.38;100.00;94740.09;5090071;28;20046;-80
2022/11/22 10:25:17;;;;;;;19.73;8.15;;;;;;;5.41;100.00;94733.22;5089529;28;20051;-77
2022/11/22 10:27:47;;;;;;;11.93;7.57;;;;;;;5.50;100.00;94734.78;5090118;28;20040;-77
2022/11/22 10:30:18;;;;;;;14.82;7.57;;;;;;;5.67;100.00;94733.88;5089483;28;20048;-79
2022/11/22 10:33:04;;;;;;;19.58;8.13;;;;;;;5.68;100.00;94745.47;5090044;28;20050;-79
2022/11/22 10:35:44;;;;;;;15.40;7.38;;;;;;;5.79;100.00;94744.00;5089755;28;20032;-79
2022/11/22 10:38:33;;;;;;;12.48;7.18;;;;;;;5.78;100.00;94739.72;5089401;28;20047;-79
2022/11/22 10:41:10;;;;;;;13.88;6.63;;;;;;;5.71;100.00;94739.44;5089887;28;20067;-81
2022/11/22 10:43:46;;;;;;;13.20;6.15;;;;;;;5.76;100.00;94733.84;5083048;28;20070;-81
2022/11/22 10:46:21;;;;;;;15.52;6.20;;;;;;;5.85;100.00;94741.91;5089283;28;20418;-80
2022/11/22 10:48:55;;;;;;;13.93;6.10;;;;;;;5.76;100.00;94744.66;5089715;28;20395;-78
2022/11/22 10:51:27;;;;;;;12.15;6.13;;;;;;;5.82;100.00;94740.66;5089154;28;20071;-79
2022/11/22 10:54:04;;;;;;;9.93;4.87;;;;;;;5.94;100.00;94735.34;5089786;28;20064;-78
2022/11/22 10:56:37;;;;;;;14.80;5.70;;;;;;;6.03;100.00;94727.19;5089611;28;20446;-80
2022/11/22 10:59:29;;;;;;;13.45;4.88;;;;;;;5.97;100.00;94733.91;5089189;28;20402;-81
2022/11/22 11:02:03;;;;;;;11.60;5.35;;;;;;;5.98;100.00;94727.38;5089780;28;20043;-78
2022/11/22 11:04:33;;;;;;;10.82;5.00;;;;;;;6.13;100.00;94720.63;5090350;28;20475;-80
2022/11/22 11:07:01;;;;;;;11.80;4.30;;;;;;;6.03;100.00;94721.00;5093284;28;20093;-82
2022/11/22 11:09:33;;;;;;;8.85;4.10;;;;;;;6.06;100.00;94720.34;5092929;28;20044;-79
2022/11/22 11:12:03;;;;;;;17.58;4.93;;;;;;;6.13;100.00;94717.91;5093133;28;20044;-79
2022/11/22 11:14:36;;;;;;;10.02;3.38;;;;;;;6.06;100.00;94725.75;5086604;28;20409;-81
2022/11/22 11:17:05;;;;;;;8.57;2.97;;;;;;;6.07;100.00;94728.13;5092708;28;20060;-82
2022/11/22 11:19:37;;;;;;;11.35;3.20;;;;;;;6.11;100.00;94730.94;5092860;28;20044;-79
2022/11/22 11:22:15;;;;;;;5.82;2.22;;;;;;;5.88;98.08;94731.22;5092585;28;20059;-79
2022/11/22 11:24:42;;;;;;;8.23;2.40;;;;;;;5.83;97.57;94734.13;5092890;28;20043;-80
2022/11/22 11:27:11;;;;;;;9.98;2.40;;;;;;;5.81;97.36;94730.97;5092261;28;20050;-79
2022/11/22 11:29:42;;;;;;;8.07;2.72;;;;;;;5.84;97.39;94735.69;5092921;28;20036;-80
2022/11/22 11:32:12;;;;;;;11.23;2.38;;;;;;;5.87;96.41;94732.34;5092346;28;20040;-79
2022/11/22 11:34:42;;;;;;;9.60;2.78;;;;;;;5.89;96.92;94732.81;5092672;28;20123;-80
2022/11/22 11:37:22;;;;;;;7.03;2.38;;;;;;;5.98;97.06;94730.88;5092193;28;20147;-78
2022/11/22 11:39:48;;;;;;;5.70;2.35;;;;;;;6.08;97.33;94728.91;5092810;28;20040;-81
2022/11/22 11:42:27;;;;;;;7.53;2.00;;;;;;;6.13;97.51;94726.03;5089016;28;20047;-78
2022/11/22 11:44:54;;;;;;;8.32;1.90;;;;;;;5.89;96.56;94724.69;5072262;28;20127;-78
2022/11/22 11:47:34;;;;;;;6.82;1.90;;;;;;;5.97;96.35;94723.91;5071784;28;20045;-81
2022/11/22 11:50:01;;;;;;;12.18;2.40;;;;;;;6.09;96.52;94730.50;5072149;28;20051;-77
2022/11/22 11:52:29;;;;;;;9.35;1.85;;;;;;;5.97;95.46;94733.91;5072012;28;20041;-79
2022/11/22 11:54:58;;;;;;;10.70;2.35;;;;;;;5.98;95.60;94730.09;5072337;28;20052;-80